sensor_id;sensor_type;location;lat;lon;timestamp;P1;durP1;ratioP1;P2;durP2;ratioP2
80127;SDS011;69440;52.118;5.408;2024-03-17T00:00:16;6.30;;;2.20;;
80127;SDS011;69440;52.118;5.408;2024-03-17T00:02:46;4.38;;;2.30;;
80127;SDS011;69440;52.118;5.408;2024-03-17T00:05:12;7.13;;;2.45;;
80127;SDS011;69440;52.118;5.408;2024-03-17T00:07:38;5.13;;;2.30;;
80127;SDS011;69440;52.118;5.408;2024-03-17T00:12:30;4.28;;;2.35;;
80127;SDS011;69440;52.118;5.408;2024-03-17T00:14:55;6.95;;;2.65;;
80127;SDS011;69440;52.118;5.408;2024-03-17T00:17:21;4.30;;;2.67;;
80127;SDS011;69440;52.118;5.408;2024-03-17T00:19:48;4.70;;;2.03;;
80127;SDS011;69440;52.118;5.408;2024-03-17T00:22:13;4.78;;;2.30;;
80127;SDS011;69440;52.118;5.408;2024-03-17T00:24:40;9.18;;;2.72;;
80127;SDS011;69440;52.118;5.408;2024-03-17T00:27:06;8.15;;;2.70;;
80127;SDS011;69440;52.118;5.408;2024-03-17T00:29:31;6.30;;;2.22;;
80127;SDS011;69440;52.118;5.408;2024-03-17T00:31:57;6.78;;;2.40;;
80127;SDS011;69440;52.118;5.408;2024-03-17T00:34:23;6.60;;;2.13;;
80127;SDS011;69440;52.118;5.408;2024-03-17T00:36:49;10.15;;;2.85;;
80127;SDS011;69440;52.118;5.408;2024-03-17T00:39:14;7.53;;;2.60;;
80127;SDS011;69440;52.118;5.408;2024-03-17T00:41:40;7.38;;;2.20;;
80127;SDS011;69440;52.118;5.408;2024-03-17T00:44:06;5.72;;;2.88;;
80127;SDS011;69440;52.118;5.408;2024-03-17T00:46:31;6.78;;;2.45;;
80127;SDS011;69440;52.118;5.408;2024-03-17T00:48:58;5.28;;;2.60;;
80127;SDS011;69440;52.118;5.408;2024-03-17T00:51:27;8.85;;;2.67;;
80127;SDS011;69440;52.118;5.408;2024-03-17T00:53:53;9.70;;;3.00;;
80127;SDS011;69440;52.118;5.408;2024-03-17T00:56:18;4.57;;;2.20;;
80127;SDS011;69440;52.118;5.408;2024-03-17T00:58:44;8.80;;;2.72;;
80127;SDS011;69440;52.118;5.408;2024-03-17T01:01:10;5.85;;;2.60;;
80127;SDS011;69440;52.118;5.408;2024-03-17T01:03:36;6.32;;;2.22;;
80127;SDS011;69440;52.118;5.408;2024-03-17T01:06:05;6.78;;;2.80;;
80127;SDS011;69440;52.118;5.408;2024-03-17T01:08:31;6.78;;;2.88;;
80127;SDS011;69440;52.118;5.408;2024-03-17T01:10:56;7.35;;;2.95;;
80127;SDS011;69440;52.118;5.408;2024-03-17T01:13:23;6.40;;;2.63;;
80127;SDS011;69440;52.118;5.408;2024-03-17T01:15:52;6.10;;;2.63;;
80127;SDS011;69440;52.118;5.408;2024-03-17T01:18:18;7.80;;;3.55;;
80127;SDS011;69440;52.118;5.408;2024-03-17T01:20:44;8.82;;;3.22;;
80127;SDS011;69440;52.118;5.408;2024-03-17T01:23:11;8.32;;;2.92;;
80127;SDS011;69440;52.118;5.408;2024-03-17T01:25:36;6.10;;;2.70;;
80127;SDS011;69440;52.118;5.408;2024-03-17T01:28:05;6.60;;;2.90;;
80127;SDS011;69440;52.118;5.408;2024-03-17T01:30:31;6.25;;;2.38;;
80127;SDS011;69440;52.118;5.408;2024-03-17T01:32:58;6.00;;;2.65;;
80127;SDS011;69440;52.118;5.408;2024-03-17T01:35:25;8.20;;;2.40;;
80127;SDS011;69440;52.118;5.408;2024-03-17T01:37:51;6.25;;;2.92;;
80127;SDS011;69440;52.118;5.408;2024-03-17T01:40:16;7.85;;;3.20;;
80127;SDS011;69440;52.118;5.408;2024-03-17T01:42:42;7.05;;;3.53;;
80127;SDS011;69440;52.118;5.408;2024-03-17T01:47:51;9.23;;;5.10;;
80127;SDS011;69440;52.118;5.408;2024-03-17T01:50:17;10.20;;;5.00;;
80127;SDS011;69440;52.118;5.408;2024-03-17T01:52:50;9.43;;;5.35;;
80127;SDS011;69440;52.118;5.408;2024-03-17T01:55:18;7.63;;;4.65;;
80127;SDS011;69440;52.118;5.408;2024-03-17T01:57:45;8.15;;;4.45;;
80127;SDS011;69440;52.118;5.408;2024-03-17T02:00:11;9.73;;;5.20;;
80127;SDS011;69440;52.118;5.408;2024-03-17T02:02:37;7.65;;;4.50;;
80127;SDS011;69440;52.118;5.408;2024-03-17T02:05:03;8.52;;;4.78;;
80127;SDS011;69440;52.118;5.408;2024-03-17T02:07:29;9.45;;;4.82;;
80127;SDS011;69440;52.118;5.408;2024-03-17T02:09:58;13.63;;;5.85;;
80127;SDS011;69440;52.118;5.408;2024-03-17T02:12:24;13.93;;;6.90;;
80127;SDS011;69440;52.118;5.408;2024-03-17T02:14:50;11.73;;;5.07;;
80127;SDS011;69440;52.118;5.408;2024-03-17T02:17:16;10.18;;;6.10;;
80127;SDS011;69440;52.118;5.408;2024-03-17T02:19:42;12.07;;;6.10;;
80127;SDS011;69440;52.118;5.408;2024-03-17T02:22:14;11.18;;;4.97;;
80127;SDS011;69440;52.118;5.408;2024-03-17T02:24:43;12.25;;;6.00;;
80127;SDS011;69440;52.118;5.408;2024-03-17T02:27:09;9.73;;;5.22;;
80127;SDS011;69440;52.118;5.408;2024-03-17T02:29:35;10.07;;;4.97;;
80127;SDS011;69440;52.118;5.408;2024-03-17T02:32:04;13.73;;;4.80;;
80127;SDS011;69440;52.118;5.408;2024-03-17T02:34:36;8.75;;;4.90;;
80127;SDS011;69440;52.118;5.408;2024-03-17T02:37:03;10.60;;;4.68;;
80127;SDS011;69440;52.118;5.408;2024-03-17T02:39:30;8.27;;;4.22;;
80127;SDS011;69440;52.118;5.408;2024-03-17T02:42:06;11.40;;;4.63;;
80127;SDS011;69440;52.118;5.408;2024-03-17T02:44:34;8.23;;;4.30;;
80127;SDS011;69440;52.118;5.408;2024-03-17T02:47:00;10.50;;;4.78;;
80127;SDS011;69440;52.118;5.408;2024-03-17T02:49:27;7.97;;;4.57;;
80127;SDS011;69440;52.118;5.408;2024-03-17T02:52:00;6.75;;;4.55;;
80127;SDS011;69440;52.118;5.408;2024-03-17T02:54:26;7.80;;;4.07;;
80127;SDS011;69440;52.118;5.408;2024-03-17T02:56:52;9.18;;;4.55;;
80127;SDS011;69440;52.118;5.408;2024-03-17T02:59:17;11.77;;;4.82;;
80127;SDS011;69440;52.118;5.408;2024-03-17T03:01:43;10.30;;;5.05;;
80127;SDS011;69440;52.118;5.408;2024-03-17T03:04:10;8.57;;;5.53;;
80127;SDS011;69440;52.118;5.408;2024-03-17T03:06:35;11.75;;;4.43;;
80127;SDS011;69440;52.118;5.408;2024-03-17T03:09:03;8.55;;;4.63;;
80127;SDS011;69440;52.118;5.408;2024-03-17T03:11:35;8.48;;;4.88;;
80127;SDS011;69440;52.118;5.408;2024-03-17T03:14:00;9.82;;;4.40;;
80127;SDS011;69440;52.118;5.408;2024-03-17T03:16:27;9.88;;;4.78;;
80127;SDS011;69440;52.118;5.408;2024-03-17T03:18:53;8.98;;;4.10;;
80127;SDS011;69440;52.118;5.408;2024-03-17T03:21:19;9.07;;;4.93;;
80127;SDS011;69440;52.118;5.408;2024-03-17T03:23:46;8.85;;;4.30;;
80127;SDS011;69440;52.118;5.408;2024-03-17T03:26:12;9.05;;;4.82;;
80127;SDS011;69440;52.118;5.408;2024-03-17T03:28:38;8.70;;;4.47;;
80127;SDS011;69440;52.118;5.408;2024-03-17T03:31:03;6.88;;;4.20;;
80127;SDS011;69440;52.118;5.408;2024-03-17T03:33:29;7.35;;;4.13;;
80127;SDS011;69440;52.118;5.408;2024-03-17T03:35:55;6.32;;;3.95;;
80127;SDS011;69440;52.118;5.408;2024-03-17T03:38:21;9.40;;;4.55;;
80127;SDS011;69440;52.118;5.408;2024-03-17T03:43:13;8.50;;;4.30;;
80127;SDS011;69440;52.118;5.408;2024-03-17T03:45:39;10.27;;;4.45;;
80127;SDS011;69440;52.118;5.408;2024-03-17T03:50:31;7.80;;;4.53;;
80127;SDS011;69440;52.118;5.408;2024-03-17T03:52:57;8.70;;;4.45;;
80127;SDS011;69440;52.118;5.408;2024-03-17T03:55:23;9.95;;;4.18;;
80127;SDS011;69440;52.118;5.408;2024-03-17T03:57:49;7.45;;;4.35;;
80127;SDS011;69440;52.118;5.408;2024-03-17T04:00:20;9.13;;;4.70;;
80127;SDS011;69440;52.118;5.408;2024-03-17T04:02:50;8.20;;;4.18;;
80127;SDS011;69440;52.118;5.408;2024-03-17T04:05:18;8.57;;;5.00;;
80127;SDS011;69440;52.118;5.408;2024-03-17T04:07:45;8.10;;;5.25;;
80127;SDS011;69440;52.118;5.408;2024-03-17T04:10:11;12.32;;;5.35;;
80127;SDS011;69440;52.118;5.408;2024-03-17T04:12:38;9.48;;;5.00;;
80127;SDS011;69440;52.118;5.408;2024-03-17T04:15:04;8.65;;;5.10;;
80127;SDS011;69440;52.118;5.408;2024-03-17T04:17:31;10.75;;;5.30;;
80127;SDS011;69440;52.118;5.408;2024-03-17T04:19:57;10.40;;;5.90;;
80127;SDS011;69440;52.118;5.408;2024-03-17T04:22:23;14.40;;;5.60;;
80127;SDS011;69440;52.118;5.408;2024-03-17T04:27:19;10.73;;;5.22;;
80127;SDS011;69440;52.118;5.408;2024-03-17T04:32:17;8.30;;;4.78;;
80127;SDS011;69440;52.118;5.408;2024-03-17T04:34:43;11.50;;;6.15;;
80127;SDS011;69440;52.118;5.408;2024-03-17T04:37:09;10.00;;;5.10;;
80127;SDS011;69440;52.118;5.408;2024-03-17T04:39:38;10.43;;;5.68;;
80127;SDS011;69440;52.118;5.408;2024-03-17T04:42:15;11.93;;;6.03;;
80127;SDS011;69440;52.118;5.408;2024-03-17T04:44:41;9.65;;;5.38;;
80127;SDS011;69440;52.118;5.408;2024-03-17T04:47:08;8.88;;;5.38;;
80127;SDS011;69440;52.118;5.408;2024-03-17T04:49:41;10.85;;;6.13;;
80127;SDS011;69440;52.118;5.408;2024-03-17T04:52:08;13.43;;;6.18;;
80127;SDS011;69440;52.118;5.408;2024-03-17T04:54:35;10.02;;;5.75;;
80127;SDS011;69440;52.118;5.408;2024-03-17T04:57:01;10.73;;;5.68;;
80127;SDS011;69440;52.118;5.408;2024-03-17T05:01:53;11.63;;;5.47;;
80127;SDS011;69440;52.118;5.408;2024-03-17T05:04:19;10.60;;;5.80;;
80127;SDS011;69440;52.118;5.408;2024-03-17T05:06:44;10.05;;;6.13;;
80127;SDS011;69440;52.118;5.408;2024-03-17T05:09:17;11.52;;;5.28;;
80127;SDS011;69440;52.118;5.408;2024-03-17T05:11:43;9.95;;;5.43;;
80127;SDS011;69440;52.118;5.408;2024-03-17T05:14:09;9.68;;;5.22;;
80127;SDS011;69440;52.118;5.408;2024-03-17T05:16:35;11.77;;;5.38;;
80127;SDS011;69440;52.118;5.408;2024-03-17T05:19:01;10.68;;;5.60;;
80127;SDS011;69440;52.118;5.408;2024-03-17T05:21:27;8.93;;;5.57;;
80127;SDS011;69440;52.118;5.408;2024-03-17T05:23:55;9.40;;;5.38;;
80127;SDS011;69440;52.118;5.408;2024-03-17T05:26:23;12.15;;;6.20;;
80127;SDS011;69440;52.118;5.408;2024-03-17T05:28:50;10.65;;;5.50;;
80127;SDS011;69440;52.118;5.408;2024-03-17T05:31:15;8.98;;;5.05;;
80127;SDS011;69440;52.118;5.408;2024-03-17T05:33:43;9.77;;;6.40;;
80127;SDS011;69440;52.118;5.408;2024-03-17T05:36:11;10.60;;;5.97;;
80127;SDS011;69440;52.118;5.408;2024-03-17T05:38:36;9.95;;;5.50;;
80127;SDS011;69440;52.118;5.408;2024-03-17T05:41:03;8.98;;;5.72;;
80127;SDS011;69440;52.118;5.408;2024-03-17T05:43:34;10.20;;;6.57;;
80127;SDS011;69440;52.118;5.408;2024-03-17T05:46:06;8.48;;;5.43;;
80127;SDS011;69440;52.118;5.408;2024-03-17T05:48:36;14.88;;;5.72;;
80127;SDS011;69440;52.118;5.408;2024-03-17T05:51:05;10.48;;;6.22;;
80127;SDS011;69440;52.118;5.408;2024-03-17T05:53:32;13.18;;;6.25;;
80127;SDS011;69440;52.118;5.408;2024-03-17T05:56:01;9.77;;;5.78;;
80127;SDS011;69440;52.118;5.408;2024-03-17T05:58:27;10.13;;;5.93;;
80127;SDS011;69440;52.118;5.408;2024-03-17T06:00:53;10.90;;;6.80;;
80127;SDS011;69440;52.118;5.408;2024-03-17T06:03:19;12.73;;;5.90;;
80127;SDS011;69440;52.118;5.408;2024-03-17T06:05:44;10.23;;;6.13;;
80127;SDS011;69440;52.118;5.408;2024-03-17T06:08:11;10.63;;;6.40;;
80127;SDS011;69440;52.118;5.408;2024-03-17T06:10:37;12.38;;;6.13;;
80127;SDS011;69440;52.118;5.408;2024-03-17T06:13:07;9.02;;;6.20;;
80127;SDS011;69440;52.118;5.408;2024-03-17T06:15:37;8.63;;;6.13;;
80127;SDS011;69440;52.118;5.408;2024-03-17T06:18:03;14.27;;;7.82;;
80127;SDS011;69440;52.118;5.408;2024-03-17T06:20:28;10.32;;;5.88;;
80127;SDS011;69440;52.118;5.408;2024-03-17T06:22:54;11.10;;;5.85;;
80127;SDS011;69440;52.118;5.408;2024-03-17T06:25:20;9.40;;;5.53;;
80127;SDS011;69440;52.118;5.408;2024-03-17T06:27:53;12.80;;;6.22;;
80127;SDS011;69440;52.118;5.408;2024-03-17T06:30:19;10.65;;;6.57;;
80127;SDS011;69440;52.118;5.408;2024-03-17T06:32:45;11.88;;;6.80;;
80127;SDS011;69440;52.118;5.408;2024-03-17T06:35:11;16.00;;;6.82;;
80127;SDS011;69440;52.118;5.408;2024-03-17T06:37:37;11.23;;;6.68;;
80127;SDS011;69440;52.118;5.408;2024-03-17T06:42:29;11.73;;;6.38;;
80127;SDS011;69440;52.118;5.408;2024-03-17T06:44:55;12.27;;;6.25;;
80127;SDS011;69440;52.118;5.408;2024-03-17T06:47:21;13.35;;;6.18;;
80127;SDS011;69440;52.118;5.408;2024-03-17T06:49:46;10.10;;;6.05;;
80127;SDS011;69440;52.118;5.408;2024-03-17T06:52:12;11.70;;;7.07;;
80127;SDS011;69440;52.118;5.408;2024-03-17T06:54:38;12.13;;;6.47;;
80127;SDS011;69440;52.118;5.408;2024-03-17T06:57:03;11.80;;;6.55;;
80127;SDS011;69440;52.118;5.408;2024-03-17T06:59:32;10.68;;;6.32;;
80127;SDS011;69440;52.118;5.408;2024-03-17T07:01:58;11.43;;;6.05;;
80127;SDS011;69440;52.118;5.408;2024-03-17T07:04:24;9.05;;;5.65;;
80127;SDS011;69440;52.118;5.408;2024-03-17T07:06:49;12.68;;;6.30;;
80127;SDS011;69440;52.118;5.408;2024-03-17T07:09:15;11.55;;;6.30;;
80127;SDS011;69440;52.118;5.408;2024-03-17T07:11:42;10.18;;;6.43;;
80127;SDS011;69440;52.118;5.408;2024-03-17T07:14:09;10.20;;;5.65;;
80127;SDS011;69440;52.118;5.408;2024-03-17T07:16:35;9.85;;;6.65;;
80127;SDS011;69440;52.118;5.408;2024-03-17T07:19:03;10.75;;;5.93;;
80127;SDS011;69440;52.118;5.408;2024-03-17T07:21:30;10.70;;;6.75;;
80127;SDS011;69440;52.118;5.408;2024-03-17T07:23:56;11.15;;;6.18;;
80127;SDS011;69440;52.118;5.408;2024-03-17T07:26:24;9.65;;;6.43;;
80127;SDS011;69440;52.118;5.408;2024-03-17T07:28:50;8.52;;;5.68;;
80127;SDS011;69440;52.118;5.408;2024-03-17T07:31:15;11.23;;;6.68;;
80127;SDS011;69440;52.118;5.408;2024-03-17T07:33:41;8.77;;;5.40;;
80127;SDS011;69440;52.118;5.408;2024-03-17T07:36:07;7.55;;;5.65;;
80127;SDS011;69440;52.118;5.408;2024-03-17T07:38:34;7.95;;;5.50;;
80127;SDS011;69440;52.118;5.408;2024-03-17T07:41:02;9.68;;;6.07;;
80127;SDS011;69440;52.118;5.408;2024-03-17T07:43:29;10.93;;;5.82;;
80127;SDS011;69440;52.118;5.408;2024-03-17T07:46:09;10.40;;;5.53;;
80127;SDS011;69440;52.118;5.408;2024-03-17T07:48:38;9.75;;;5.55;;
80127;SDS011;69440;52.118;5.408;2024-03-17T07:51:05;11.00;;;5.97;;
80127;SDS011;69440;52.118;5.408;2024-03-17T07:53:33;8.07;;;5.35;;
80127;SDS011;69440;52.118;5.408;2024-03-17T07:56:09;8.82;;;6.00;;
80127;SDS011;69440;52.118;5.408;2024-03-17T07:58:35;9.77;;;5.28;;
80127;SDS011;69440;52.118;5.408;2024-03-17T08:01:03;9.95;;;5.38;;
80127;SDS011;69440;52.118;5.408;2024-03-17T08:03:35;9.93;;;5.60;;
80127;SDS011;69440;52.118;5.408;2024-03-17T08:06:02;10.00;;;5.25;;
80127;SDS011;69440;52.118;5.408;2024-03-17T08:08:29;10.13;;;6.43;;
80127;SDS011;69440;52.118;5.408;2024-03-17T08:10:54;8.60;;;5.53;;
80127;SDS011;69440;52.118;5.408;2024-03-17T08:13:20;8.82;;;5.30;;
80127;SDS011;69440;52.118;5.408;2024-03-17T08:15:54;9.23;;;4.80;;
80127;SDS011;69440;52.118;5.408;2024-03-17T08:18:21;9.23;;;5.43;;
80127;SDS011;69440;52.118;5.408;2024-03-17T08:20:47;8.85;;;5.43;;
80127;SDS011;69440;52.118;5.408;2024-03-17T08:23:12;9.45;;;5.57;;
80127;SDS011;69440;52.118;5.408;2024-03-17T08:25:38;10.77;;;5.03;;
80127;SDS011;69440;52.118;5.408;2024-03-17T08:30:30;8.75;;;4.90;;
80127;SDS011;69440;52.118;5.408;2024-03-17T08:32:56;9.25;;;5.07;;
80127;SDS011;69440;52.118;5.408;2024-03-17T08:35:22;7.65;;;5.20;;
80127;SDS011;69440;52.118;5.408;2024-03-17T08:37:47;8.48;;;4.80;;
80127;SDS011;69440;52.118;5.408;2024-03-17T08:40:13;9.32;;;6.05;;
80127;SDS011;69440;52.118;5.408;2024-03-17T08:42:39;8.63;;;5.40;;
80127;SDS011;69440;52.118;5.408;2024-03-17T08:45:05;8.48;;;5.72;;
80127;SDS011;69440;52.118;5.408;2024-03-17T08:47:31;8.07;;;5.03;;
80127;SDS011;69440;52.118;5.408;2024-03-17T08:49:57;11.18;;;5.40;;
80127;SDS011;69440;52.118;5.408;2024-03-17T08:52:24;8.82;;;5.60;;
80127;SDS011;69440;52.118;5.408;2024-03-17T08:54:49;7.88;;;5.10;;
80127;SDS011;69440;52.118;5.408;2024-03-17T08:57:18;8.85;;;5.63;;
80127;SDS011;69440;52.118;5.408;2024-03-17T09:02:13;9.32;;;5.30;;
80127;SDS011;69440;52.118;5.408;2024-03-17T09:04:42;8.38;;;4.90;;
80127;SDS011;69440;52.118;5.408;2024-03-17T09:07:07;8.90;;;4.82;;
80127;SDS011;69440;52.118;5.408;2024-03-17T09:09:33;7.22;;;5.22;;
80127;SDS011;69440;52.118;5.408;2024-03-17T09:11:58;9.27;;;5.65;;
80127;SDS011;69440;52.118;5.408;2024-03-17T09:14:24;10.57;;;5.25;;
80127;SDS011;69440;52.118;5.408;2024-03-17T09:19:15;7.97;;;4.93;;
80127;SDS011;69440;52.118;5.408;2024-03-17T09:21:41;9.23;;;5.93;;
80127;SDS011;69440;52.118;5.408;2024-03-17T09:26:35;8.57;;;5.80;;
80127;SDS011;69440;52.118;5.408;2024-03-17T09:29:01;9.00;;;5.28;;
80127;SDS011;69440;52.118;5.408;2024-03-17T09:31:26;9.55;;;5.43;;
80127;SDS011;69440;52.118;5.408;2024-03-17T09:33:52;10.27;;;5.57;;
80127;SDS011;69440;52.118;5.408;2024-03-17T09:36:18;10.55;;;5.15;;
80127;SDS011;69440;52.118;5.408;2024-03-17T09:38:43;8.40;;;5.30;;
80127;SDS011;69440;52.118;5.408;2024-03-17T09:41:23;7.95;;;4.60;;
80127;SDS011;69440;52.118;5.408;2024-03-17T09:43:54;6.57;;;4.85;;
80127;SDS011;69440;52.118;5.408;2024-03-17T09:46:20;7.05;;;5.28;;
80127;SDS011;69440;52.118;5.408;2024-03-17T09:48:48;9.95;;;5.60;;
80127;SDS011;69440;52.118;5.408;2024-03-17T09:51:23;9.38;;;5.38;;
80127;SDS011;69440;52.118;5.408;2024-03-17T09:53:50;9.00;;;5.28;;
80127;SDS011;69440;52.118;5.408;2024-03-17T09:56:17;8.20;;;4.85;;
80127;SDS011;69440;52.118;5.408;2024-03-17T10:01:13;10.48;;;6.03;;
80127;SDS011;69440;52.118;5.408;2024-03-17T10:06:05;10.35;;;5.63;;
80127;SDS011;69440;52.118;5.408;2024-03-17T10:10:59;10.90;;;4.80;;
80127;SDS011;69440;52.118;5.408;2024-03-17T10:15:50;7.85;;;4.88;;
80127;SDS011;69440;52.118;5.408;2024-03-17T10:20:50;9.65;;;6.10;;
80127;SDS011;69440;52.118;5.408;2024-03-17T10:23:23;9.40;;;5.90;;
80127;SDS011;69440;52.118;5.408;2024-03-17T10:28:16;8.43;;;4.63;;
80127;SDS011;69440;52.118;5.408;2024-03-17T10:30:56;7.65;;;4.80;;
80127;SDS011;69440;52.118;5.408;2024-03-17T10:33:26;8.93;;;4.97;;
80127;SDS011;69440;52.118;5.408;2024-03-17T10:35:59;8.05;;;5.53;;
80127;SDS011;69440;52.118;5.408;2024-03-17T10:38:26;7.65;;;4.80;;
80127;SDS011;69440;52.118;5.408;2024-03-17T10:40:52;9.55;;;5.15;;
80127;SDS011;69440;52.118;5.408;2024-03-17T10:45:51;10.10;;;4.75;;
80127;SDS011;69440;52.118;5.408;2024-03-17T10:48:16;9.85;;;4.97;;
80127;SDS011;69440;52.118;5.408;2024-03-17T10:50:46;7.15;;;4.55;;
80127;SDS011;69440;52.118;5.408;2024-03-17T10:53:12;9.32;;;4.90;;
80127;SDS011;69440;52.118;5.408;2024-03-17T10:55:44;9.45;;;4.78;;
80127;SDS011;69440;52.118;5.408;2024-03-17T11:00:56;8.35;;;4.88;;
80127;SDS011;69440;52.118;5.408;2024-03-17T11:03:23;8.02;;;4.85;;
80127;SDS011;69440;52.118;5.408;2024-03-17T11:05:49;10.02;;;5.20;;
80127;SDS011;69440;52.118;5.408;2024-03-17T11:08:17;8.27;;;4.90;;
80127;SDS011;69440;52.118;5.408;2024-03-17T11:10:50;6.45;;;4.70;;
80127;SDS011;69440;52.118;5.408;2024-03-17T11:13:24;8.00;;;5.00;;
80127;SDS011;69440;52.118;5.408;2024-03-17T11:15:54;8.95;;;5.40;;
80127;SDS011;69440;52.118;5.408;2024-03-17T11:18:34;6.75;;;4.88;;
80127;SDS011;69440;52.118;5.408;2024-03-17T11:21:01;9.75;;;5.05;;
80127;SDS011;69440;52.118;5.408;2024-03-17T11:23:37;9.00;;;4.55;;
80127;SDS011;69440;52.118;5.408;2024-03-17T11:26:04;7.25;;;4.85;;
80127;SDS011;69440;52.118;5.408;2024-03-17T11:37:00;8.13;;;4.43;;
80127;SDS011;69440;52.118;5.408;2024-03-17T11:39:50;7.97;;;4.88;;
80127;SDS011;69440;52.118;5.408;2024-03-17T11:42:21;6.95;;;5.15;;
80127;SDS011;69440;52.118;5.408;2024-03-17T11:47:46;10.23;;;5.05;;
80127;SDS011;69440;52.118;5.408;2024-03-17T11:50:13;8.98;;;4.85;;
80127;SDS011;69440;52.118;5.408;2024-03-17T11:52:40;7.90;;;4.45;;
80127;SDS011;69440;52.118;5.408;2024-03-17T11:55:15;7.95;;;4.80;;
80127;SDS011;69440;52.118;5.408;2024-03-17T11:57:43;7.95;;;4.65;;
80127;SDS011;69440;52.118;5.408;2024-03-17T12:00:22;7.05;;;4.60;;
80127;SDS011;69440;52.118;5.408;2024-03-17T12:02:50;10.15;;;4.70;;
80127;SDS011;69440;52.118;5.408;2024-03-17T12:05:15;8.18;;;4.85;;
80127;SDS011;69440;52.118;5.408;2024-03-17T12:07:42;7.22;;;4.75;;
80127;SDS011;69440;52.118;5.408;2024-03-17T12:10:10;7.68;;;5.00;;
80127;SDS011;69440;52.118;5.408;2024-03-17T12:12:36;8.82;;;5.03;;
80127;SDS011;69440;52.118;5.408;2024-03-17T12:15:03;7.88;;;4.38;;
80127;SDS011;69440;52.118;5.408;2024-03-17T12:17:38;9.40;;;4.30;;
80127;SDS011;69440;52.118;5.408;2024-03-17T12:22:30;7.57;;;4.22;;
80127;SDS011;69440;52.118;5.408;2024-03-17T12:25:01;6.57;;;4.28;;
80127;SDS011;69440;52.118;5.408;2024-03-17T12:27:27;9.57;;;4.97;;
80127;SDS011;69440;52.118;5.408;2024-03-17T12:29:53;6.95;;;4.95;;
80127;SDS011;69440;52.118;5.408;2024-03-17T12:32:21;8.32;;;4.85;;
80127;SDS011;69440;52.118;5.408;2024-03-17T12:37:19;6.82;;;4.60;;
80127;SDS011;69440;52.118;5.408;2024-03-17T12:39:46;9.45;;;4.90;;
80127;SDS011;69440;52.118;5.408;2024-03-17T12:42:13;5.47;;;4.10;;
80127;SDS011;69440;52.118;5.408;2024-03-17T12:44:46;8.82;;;4.45;;
80127;SDS011;69440;52.118;5.408;2024-03-17T12:47:34;7.03;;;4.55;;
80127;SDS011;69440;52.118;5.408;2024-03-17T12:50:00;8.88;;;4.80;;
80127;SDS011;69440;52.118;5.408;2024-03-17T12:52:28;9.40;;;5.18;;
80127;SDS011;69440;52.118;5.408;2024-03-17T12:54:57;8.25;;;4.93;;
80127;SDS011;69440;52.118;5.408;2024-03-17T12:57:52;8.82;;;5.10;;
80127;SDS011;69440;52.118;5.408;2024-03-17T13:01:02;8.57;;;4.80;;
80127;SDS011;69440;52.118;5.408;2024-03-17T13:03:35;8.75;;;4.65;;
80127;SDS011;69440;52.118;5.408;2024-03-17T13:06:02;8.50;;;4.63;;
80127;SDS011;69440;52.118;5.408;2024-03-17T13:08:31;8.32;;;4.72;;
80127;SDS011;69440;52.118;5.408;2024-03-17T13:11:01;8.20;;;5.07;;
80127;SDS011;69440;52.118;5.408;2024-03-17T13:15:58;8.23;;;4.40;;
80127;SDS011;69440;52.118;5.408;2024-03-17T13:18:24;9.18;;;4.97;;
80127;SDS011;69440;52.118;5.408;2024-03-17T13:20:50;7.22;;;4.70;;
80127;SDS011;69440;52.118;5.408;2024-03-17T13:23:16;8.60;;;4.80;;
80127;SDS011;69440;52.118;5.408;2024-03-17T13:25:42;9.38;;;5.13;;
80127;SDS011;69440;52.118;5.408;2024-03-17T13:28:10;8.90;;;5.18;;
80127;SDS011;69440;52.118;5.408;2024-03-17T13:30:35;7.93;;;5.13;;
80127;SDS011;69440;52.118;5.408;2024-03-17T13:33:01;7.53;;;4.72;;
80127;SDS011;69440;52.118;5.408;2024-03-17T13:35:33;7.03;;;5.05;;
80127;SDS011;69440;52.118;5.408;2024-03-17T13:38:00;6.20;;;4.68;;
80127;SDS011;69440;52.118;5.408;2024-03-17T13:40:27;8.90;;;5.20;;
80127;SDS011;69440;52.118;5.408;2024-03-17T13:42:54;7.68;;;5.40;;
80127;SDS011;69440;52.118;5.408;2024-03-17T13:45:21;8.88;;;4.90;;
80127;SDS011;69440;52.118;5.408;2024-03-17T13:47:58;8.40;;;4.85;;
80127;SDS011;69440;52.118;5.408;2024-03-17T13:50:25;8.90;;;5.00;;
80127;SDS011;69440;52.118;5.408;2024-03-17T13:52:51;9.05;;;5.10;;
80127;SDS011;69440;52.118;5.408;2024-03-17T13:55:18;8.60;;;5.38;;
80127;SDS011;69440;52.118;5.408;2024-03-17T13:57:46;8.20;;;5.13;;
80127;SDS011;69440;52.118;5.408;2024-03-17T14:00:13;9.85;;;5.07;;
80127;SDS011;69440;52.118;5.408;2024-03-17T14:02:45;10.38;;;5.00;;
80127;SDS011;69440;52.118;5.408;2024-03-17T14:05:12;7.82;;;5.00;;
80127;SDS011;69440;52.118;5.408;2024-03-17T14:07:39;7.70;;;4.75;;
80127;SDS011;69440;52.118;5.408;2024-03-17T14:10:05;9.40;;;5.43;;
80127;SDS011;69440;52.118;5.408;2024-03-17T14:12:33;7.95;;;4.88;;
80127;SDS011;69440;52.118;5.408;2024-03-17T14:14:59;7.45;;;5.13;;
80127;SDS011;69440;52.118;5.408;2024-03-17T14:17:25;7.32;;;4.63;;
80127;SDS011;69440;52.118;5.408;2024-03-17T14:19:50;8.45;;;5.13;;
80127;SDS011;69440;52.118;5.408;2024-03-17T14:22:16;8.07;;;5.28;;
80127;SDS011;69440;52.118;5.408;2024-03-17T14:24:41;8.80;;;4.90;;
80127;SDS011;69440;52.118;5.408;2024-03-17T14:27:07;9.10;;;4.28;;
80127;SDS011;69440;52.118;5.408;2024-03-17T14:29:34;9.90;;;5.25;;
80127;SDS011;69440;52.118;5.408;2024-03-17T14:31:59;7.93;;;4.65;;
80127;SDS011;69440;52.118;5.408;2024-03-17T14:34:25;9.63;;;5.20;;
80127;SDS011;69440;52.118;5.408;2024-03-17T14:36:52;9.38;;;5.40;;
80127;SDS011;69440;52.118;5.408;2024-03-17T14:39:17;9.73;;;4.43;;
80127;SDS011;69440;52.118;5.408;2024-03-17T14:41:43;8.23;;;4.68;;
80127;SDS011;69440;52.118;5.408;2024-03-17T14:44:08;8.40;;;5.22;;
80127;SDS011;69440;52.118;5.408;2024-03-17T14:46:34;7.55;;;4.85;;
80127;SDS011;69440;52.118;5.408;2024-03-17T14:49:00;8.93;;;4.65;;
80127;SDS011;69440;52.118;5.408;2024-03-17T14:51:26;8.18;;;4.43;;
80127;SDS011;69440;52.118;5.408;2024-03-17T14:53:52;7.57;;;4.63;;
80127;SDS011;69440;52.118;5.408;2024-03-17T14:56:18;7.38;;;4.60;;
80127;SDS011;69440;52.118;5.408;2024-03-17T14:58:43;7.38;;;4.47;;
80127;SDS011;69440;52.118;5.408;2024-03-17T15:01:11;6.38;;;4.40;;
80127;SDS011;69440;52.118;5.408;2024-03-17T15:03:37;7.95;;;4.15;;
80127;SDS011;69440;52.118;5.408;2024-03-17T15:06:08;9.25;;;4.70;;
80127;SDS011;69440;52.118;5.408;2024-03-17T15:08:37;6.60;;;4.50;;
80127;SDS011;69440;52.118;5.408;2024-03-17T15:11:03;8.02;;;5.00;;
80127;SDS011;69440;52.118;5.408;2024-03-17T15:13:28;6.07;;;4.55;;
80127;SDS011;69440;52.118;5.408;2024-03-17T15:15:54;8.13;;;4.93;;
80127;SDS011;69440;52.118;5.408;2024-03-17T15:18:23;6.90;;;4.40;;
80127;SDS011;69440;52.118;5.408;2024-03-17T15:20:52;6.55;;;4.63;;
80127;SDS011;69440;52.118;5.408;2024-03-17T15:23:18;7.97;;;4.57;;
80127;SDS011;69440;52.118;5.408;2024-03-17T15:25:44;6.70;;;4.47;;
80127;SDS011;69440;52.118;5.408;2024-03-17T15:28:09;7.65;;;4.82;;
80127;SDS011;69440;52.118;5.408;2024-03-17T15:30:37;7.95;;;4.35;;
80127;SDS011;69440;52.118;5.408;2024-03-17T15:33:02;7.70;;;5.05;;
80127;SDS011;69440;52.118;5.408;2024-03-17T15:35:28;8.60;;;4.78;;
80127;SDS011;69440;52.118;5.408;2024-03-17T15:37:56;9.05;;;5.00;;
80127;SDS011;69440;52.118;5.408;2024-03-17T15:40:22;7.60;;;4.47;;
80127;SDS011;69440;52.118;5.408;2024-03-17T15:42:48;5.95;;;4.88;;
80127;SDS011;69440;52.118;5.408;2024-03-17T15:45:14;7.78;;;4.72;;
80127;SDS011;69440;52.118;5.408;2024-03-17T15:47:41;7.82;;;4.22;;
80127;SDS011;69440;52.118;5.408;2024-03-17T15:50:07;8.35;;;4.53;;
80127;SDS011;69440;52.118;5.408;2024-03-17T15:52:33;9.57;;;5.57;;